< < Back
Terminal Aerodrome Forecast


Current Version              Previous Versions:   1  2  3  4  5  6  7  8  9  

Terminal Aerodrome Forecast

896
FTUS42 KGSP 030536
TAFHKY
TAF
KHKY 030536Z 0306/0406 35003KT P6SM SCT150
     FM031500 01005KT P6SM FEW060 SCT200=



Latest METAR

907
SAUS70 KWBC 040600 RRD
MTRHKY
METAR KHKY 040553Z AUTO 31004KT 10SM CLR 22/18 A2998 RMK AO2 SLP129
T02220183 10272 20222 50001


USA.gov is the U.S. government's official web portal to all federal, state and local government web resources and services.